sensor_id;sensor_type;location;lat;lon;timestamp;temperature;humidity
66401;HTU21D;53211;45.040;38.788;2022-07-23T00:01:24;19.30;118.99
66401;HTU21D;53211;45.040;38.788;2022-07-23T00:03:50;19.33;118.99
66401;HTU21D;53211;45.040;38.788;2022-07-23T00:06:17;19.36;118.99
66401;HTU21D;53211;45.040;38.788;2022-07-23T00:08:43;19.39;118.99
66401;HTU21D;53211;45.040;38.788;2022-07-23T00:11:09;19.40;118.99
66401;HTU21D;53211;45.040;38.788;2022-07-23T00:13:35;19.44;118.99
66401;HTU21D;53211;45.040;38.788;2022-07-23T00:16:01;19.48;118.99
66401;HTU21D;53211;45.040;38.788;2022-07-23T00:18:45;19.48;118.99
66401;HTU21D;53211;45.040;38.788;2022-07-23T00:21:11;19.50;118.99
66401;HTU21D;53211;45.040;38.788;2022-07-23T00:23:37;19.50;118.99
66401;HTU21D;53211;45.040;38.788;2022-07-23T00:26:03;19.52;118.99
66401;HTU21D;53211;45.040;38.788;2022-07-23T00:28:29;19.52;118.99
66401;HTU21D;53211;45.040;38.788;2022-07-23T00:30:55;19.48;118.99
66401;HTU21D;53211;45.040;38.788;2022-07-23T00:33:21;19.50;118.99
66401;HTU21D;53211;45.040;38.788;2022-07-23T00:35:46;19.50;118.99
66401;HTU21D;53211;45.040;38.788;2022-07-23T00:38:12;19.51;118.99
66401;HTU21D;53211;45.040;38.788;2022-07-23T00:40:38;19.51;118.99
66401;HTU21D;53211;45.040;38.788;2022-07-23T00:43:04;19.51;118.99
66401;HTU21D;53211;45.040;38.788;2022-07-23T00:45:30;19.46;118.99
66401;HTU21D;53211;45.040;38.788;2022-07-23T00:47:57;19.45;118.99
66401;HTU21D;53211;45.040;38.788;2022-07-23T00:50:23;19.46;118.99
66401;HTU21D;53211;45.040;38.788;2022-07-23T00:52:49;19.41;118.99
66401;HTU21D;53211;45.040;38.788;2022-07-23T00:55:15;19.38;118.99
66401;HTU21D;53211;45.040;38.788;2022-07-23T00:57:41;19.38;118.99
66401;HTU21D;53211;45.040;38.788;2022-07-23T01:00:08;19.35;118.99
66401;HTU21D;53211;45.040;38.788;2022-07-23T01:02:34;19.33;118.99
66401;HTU21D;53211;45.040;38.788;2022-07-23T01:05:00;19.30;118.99
66401;HTU21D;53211;45.040;38.788;2022-07-23T01:07:26;19.28;118.99
66401;HTU21D;53211;45.040;38.788;2022-07-23T01:09:52;19.27;118.99
66401;HTU21D;53211;45.040;38.788;2022-07-23T01:12:19;19.27;118.99
66401;HTU21D;53211;45.040;38.788;2022-07-23T01:14:56;19.25;118.99
66401;HTU21D;53211;45.040;38.788;2022-07-23T01:17:22;19.24;118.99
66401;HTU21D;53211;45.040;38.788;2022-07-23T01:19:48;19.23;118.99
66401;HTU21D;53211;45.040;38.788;2022-07-23T01:22:14;19.25;118.99
66401;HTU21D;53211;45.040;38.788;2022-07-23T01:24:40;19.24;118.99
66401;HTU21D;53211;45.040;38.788;2022-07-23T01:27:06;19.23;118.99
66401;HTU21D;53211;45.040;38.788;2022-07-23T01:29:35;19.20;118.99
66401;HTU21D;53211;45.040;38.788;2022-07-23T01:32:05;19.16;118.99
66401;HTU21D;53211;45.040;38.788;2022-07-23T01:34:31;19.15;118.99
66401;HTU21D;53211;45.040;38.788;2022-07-23T01:36:57;19.14;118.99
66401;HTU21D;53211;45.040;38.788;2022-07-23T01:39:23;19.12;118.99
66401;HTU21D;53211;45.040;38.788;2022-07-23T01:41:51;19.12;118.99
66401;HTU21D;53211;45.040;38.788;2022-07-23T01:44:17;19.10;118.99
66401;HTU21D;53211;45.040;38.788;2022-07-23T01:46:43;19.09;118.99
66401;HTU21D;53211;45.040;38.788;2022-07-23T01:49:09;19.10;118.99
66401;HTU21D;53211;45.040;38.788;2022-07-23T01:52:03;19.12;118.99
66401;HTU21D;53211;45.040;38.788;2022-07-23T01:54:49;19.12;118.99
66401;HTU21D;53211;45.040;38.788;2022-07-23T01:57:16;19.12;118.99
66401;HTU21D;53211;45.040;38.788;2022-07-23T01:59:42;19.13;118.99
66401;HTU21D;53211;45.040;38.788;2022-07-23T02:02:09;19.11;118.99
66401;HTU21D;53211;45.040;38.788;2022-07-23T02:04:36;19.10;118.99
66401;HTU21D;53211;45.040;38.788;2022-07-23T02:07:02;19.10;118.99
66401;HTU21D;53211;45.040;38.788;2022-07-23T02:09:28;19.10;118.99
66401;HTU21D;53211;45.040;38.788;2022-07-23T02:11:54;19.11;118.99
66401;HTU21D;53211;45.040;38.788;2022-07-23T02:14:20;19.09;118.99
66401;HTU21D;53211;45.040;38.788;2022-07-23T02:16:46;19.08;118.99
66401;HTU21D;53211;45.040;38.788;2022-07-23T02:19:14;19.05;118.99
66401;HTU21D;53211;45.040;38.788;2022-07-23T02:21:40;19.05;118.99
66401;HTU21D;53211;45.040;38.788;2022-07-23T02:24:06;18.99;118.99
66401;HTU21D;53211;45.040;38.788;2022-07-23T02:26:33;18.97;118.99
66401;HTU21D;53211;45.040;38.788;2022-07-23T02:29:02;18.98;118.99
66401;HTU21D;53211;45.040;38.788;2022-07-23T02:31:29;18.96;118.99
66401;HTU21D;53211;45.040;38.788;2022-07-23T02:33:56;18.98;118.99
66401;HTU21D;53211;45.040;38.788;2022-07-23T02:36:22;19.01;118.99
66401;HTU21D;53211;45.040;38.788;2022-07-23T02:38:48;19.09;118.99
66401;HTU21D;53211;45.040;38.788;2022-07-23T02:41:14;19.15;118.99
66401;HTU21D;53211;45.040;38.788;2022-07-23T02:43:41;19.23;118.99
66401;HTU21D;53211;45.040;38.788;2022-07-23T02:46:07;19.28;118.99
66401;HTU21D;53211;45.040;38.788;2022-07-23T02:48:33;19.35;118.99
66401;HTU21D;53211;45.040;38.788;2022-07-23T02:50:59;19.36;118.99
66401;HTU21D;53211;45.040;38.788;2022-07-23T02:53:32;19.36;118.99
66401;HTU21D;53211;45.040;38.788;2022-07-23T02:55:58;19.38;118.99
66401;HTU21D;53211;45.040;38.788;2022-07-23T02:58:23;19.39;118.99
66401;HTU21D;53211;45.040;38.788;2022-07-23T03:00:52;19.39;118.99
66401;HTU21D;53211;45.040;38.788;2022-07-23T03:03:18;19.39;118.99
66401;HTU21D;53211;45.040;38.788;2022-07-23T03:05:44;19.40;118.99
66401;HTU21D;53211;45.040;38.788;2022-07-23T03:08:11;19.38;118.99
66401;HTU21D;53211;45.040;38.788;2022-07-23T03:10:39;19.40;118.99
66401;HTU21D;53211;45.040;38.788;2022-07-23T03:13:05;19.40;118.99
66401;HTU21D;53211;45.040;38.788;2022-07-23T03:15:31;19.42;118.99
66401;HTU21D;53211;45.040;38.788;2022-07-23T03:17:58;19.45;118.99
66401;HTU21D;53211;45.040;38.788;2022-07-23T03:20:24;19.47;118.99
66401;HTU21D;53211;45.040;38.788;2022-07-23T03:22:50;19.51;118.99
66401;HTU21D;53211;45.040;38.788;2022-07-23T03:25:16;19.55;118.99
66401;HTU21D;53211;45.040;38.788;2022-07-23T03:27:42;19.57;118.99
66401;HTU21D;53211;45.040;38.788;2022-07-23T03:30:11;19.57;118.99
66401;HTU21D;53211;45.040;38.788;2022-07-23T03:32:37;19.67;118.99
66401;HTU21D;53211;45.040;38.788;2022-07-23T03:35:03;19.75;118.99
66401;HTU21D;53211;45.040;38.788;2022-07-23T03:37:30;19.79;118.99
66401;HTU21D;53211;45.040;38.788;2022-07-23T03:39:57;19.88;118.99
66401;HTU21D;53211;45.040;38.788;2022-07-23T03:42:24;19.92;118.99
66401;HTU21D;53211;45.040;38.788;2022-07-23T03:44:49;19.99;118.99
66401;HTU21D;53211;45.040;38.788;2022-07-23T03:47:15;20.02;118.99
66401;HTU21D;53211;45.040;38.788;2022-07-23T03:49:43;20.10;118.99
66401;HTU21D;53211;45.040;38.788;2022-07-23T03:52:09;20.21;118.99
66401;HTU21D;53211;45.040;38.788;2022-07-23T03:54:35;20.32;118.99
66401;HTU21D;53211;45.040;38.788;2022-07-23T03:57:01;20.40;118.99
66401;HTU21D;53211;45.040;38.788;2022-07-23T03:59:28;20.45;118.99
66401;HTU21D;53211;45.040;38.788;2022-07-23T04:01:53;20.48;118.99
66401;HTU21D;53211;45.040;38.788;2022-07-23T04:04:19;20.63;118.99
66401;HTU21D;53211;45.040;38.788;2022-07-23T04:06:45;20.72;118.99
66401;HTU21D;53211;45.040;38.788;2022-07-23T04:09:11;20.79;118.99
66401;HTU21D;53211;45.040;38.788;2022-07-23T04:11:37;20.89;118.99
66401;HTU21D;53211;45.040;38.788;2022-07-23T04:14:03;20.92;118.99
66401;HTU21D;53211;45.040;38.788;2022-07-23T04:16:30;20.94;118.99
66401;HTU21D;53211;45.040;38.788;2022-07-23T04:18:57;21.09;118.99
66401;HTU21D;53211;45.040;38.788;2022-07-23T04:21:23;21.24;118.99
66401;HTU21D;53211;45.040;38.788;2022-07-23T04:23:49;21.34;118.99
66401;HTU21D;53211;45.040;38.788;2022-07-23T04:26:15;21.47;118.99
66401;HTU21D;53211;45.040;38.788;2022-07-23T04:28:41;21.64;118.99
66401;HTU21D;53211;45.040;38.788;2022-07-23T04:31:07;21.75;118.99
66401;HTU21D;53211;45.040;38.788;2022-07-23T04:33:35;21.82;118.99
66401;HTU21D;53211;45.040;38.788;2022-07-23T04:36:05;21.88;118.99
66401;HTU21D;53211;45.040;38.788;2022-07-23T04:38:31;21.95;118.99
66401;HTU21D;53211;45.040;38.788;2022-07-23T04:41:01;21.98;118.99
66401;HTU21D;53211;45.040;38.788;2022-07-23T04:43:26;22.08;118.99
66401;HTU21D;53211;45.040;38.788;2022-07-23T04:45:53;22.06;118.99
66401;HTU21D;53211;45.040;38.788;2022-07-23T04:48:19;22.23;118.99
66401;HTU21D;53211;45.040;38.788;2022-07-23T04:50:47;22.31;118.99
66401;HTU21D;53211;45.040;38.788;2022-07-23T04:53:23;22.37;118.99
66401;HTU21D;53211;45.040;38.788;2022-07-23T04:55:52;22.52;118.99
66401;HTU21D;53211;45.040;38.788;2022-07-23T04:58:17;22.65;118.99
66401;HTU21D;53211;45.040;38.788;2022-07-23T05:00:43;22.81;118.99
66401;HTU21D;53211;45.040;38.788;2022-07-23T05:03:10;22.83;118.99
66401;HTU21D;53211;45.040;38.788;2022-07-23T05:05:36;22.82;118.99
66401;HTU21D;53211;45.040;38.788;2022-07-23T05:08:09;22.70;118.99
66401;HTU21D;53211;45.040;38.788;2022-07-23T05:10:37;22.61;118.99
66401;HTU21D;53211;45.040;38.788;2022-07-23T05:13:03;22.62;118.99
66401;HTU21D;53211;45.040;38.788;2022-07-23T05:15:29;22.51;118.99
66401;HTU21D;53211;45.040;38.788;2022-07-23T05:17:55;22.48;118.99
66401;HTU21D;53211;45.040;38.788;2022-07-23T05:20:22;22.53;118.99
66401;HTU21D;53211;45.040;38.788;2022-07-23T05:22:48;22.43;118.99
66401;HTU21D;53211;45.040;38.788;2022-07-23T05:25:14;22.58;118.99
66401;HTU21D;53211;45.040;38.788;2022-07-23T05:27:40;22.65;118.99
66401;HTU21D;53211;45.040;38.788;2022-07-23T05:30:06;22.63;118.99
66401;HTU21D;53211;45.040;38.788;2022-07-23T05:32:35;22.55;118.99
66401;HTU21D;53211;45.040;38.788;2022-07-23T05:35:15;0.00;118.99
66401;HTU21D;53211;45.040;38.788;2022-07-23T05:37:47;22.50;118.99
66401;HTU21D;53211;45.040;38.788;2022-07-23T05:40:13;22.62;118.99
66401;HTU21D;53211;45.040;38.788;2022-07-23T05:42:39;22.63;118.99
66401;HTU21D;53211;45.040;38.788;2022-07-23T05:45:06;22.69;118.99
66401;HTU21D;53211;45.040;38.788;2022-07-23T05:50:07;23.13;118.99
66401;HTU21D;53211;45.040;38.788;2022-07-23T05:52:40;23.26;118.99
66401;HTU21D;53211;45.040;38.788;2022-07-23T05:55:27;23.41;118.99
66401;HTU21D;53211;45.040;38.788;2022-07-23T05:57:55;23.30;118.99
66401;HTU21D;53211;45.040;38.788;2022-07-23T06:00:21;23.24;118.99
66401;HTU21D;53211;45.040;38.788;2022-07-23T06:02:47;23.20;118.99
66401;HTU21D;53211;45.040;38.788;2022-07-23T06:05:15;22.99;118.99
66401;HTU21D;53211;45.040;38.788;2022-07-23T06:07:42;22.88;118.99
66401;HTU21D;53211;45.040;38.788;2022-07-23T06:10:09;22.95;118.99
66401;HTU21D;53211;45.040;38.788;2022-07-23T06:12:35;22.92;118.99
66401;HTU21D;53211;45.040;38.788;2022-07-23T06:15:01;22.93;118.99
66401;HTU21D;53211;45.040;38.788;2022-07-23T06:17:27;22.91;118.99
66401;HTU21D;53211;45.040;38.788;2022-07-23T06:19:53;23.10;118.99
66401;HTU21D;53211;45.040;38.788;2022-07-23T06:22:19;23.29;118.99
66401;HTU21D;53211;45.040;38.788;2022-07-23T06:24:45;23.39;118.99
66401;HTU21D;53211;45.040;38.788;2022-07-23T06:27:11;23.64;118.99
66401;HTU21D;53211;45.040;38.788;2022-07-23T06:29:37;23.88;118.99
66401;HTU21D;53211;45.040;38.788;2022-07-23T06:32:03;23.86;118.99
66401;HTU21D;53211;45.040;38.788;2022-07-23T06:34:29;24.04;118.99
66401;HTU21D;53211;45.040;38.788;2022-07-23T06:36:55;24.09;118.99
66401;HTU21D;53211;45.040;38.788;2022-07-23T06:39:21;24.09;118.99
66401;HTU21D;53211;45.040;38.788;2022-07-23T06:41:48;23.96;118.99
66401;HTU21D;53211;45.040;38.788;2022-07-23T06:44:16;24.03;118.99
66401;HTU21D;53211;45.040;38.788;2022-07-23T06:46:43;24.09;118.99
66401;HTU21D;53211;45.040;38.788;2022-07-23T06:49:09;24.13;118.99
66401;HTU21D;53211;45.040;38.788;2022-07-23T06:51:35;24.21;118.99
66401;HTU21D;53211;45.040;38.788;2022-07-23T06:54:01;24.09;118.99
66401;HTU21D;53211;45.040;38.788;2022-07-23T06:56:27;24.08;118.99
66401;HTU21D;53211;45.040;38.788;2022-07-23T06:58:53;24.08;118.99
66401;HTU21D;53211;45.040;38.788;2022-07-23T07:01:19;24.08;118.99
66401;HTU21D;53211;45.040;38.788;2022-07-23T07:03:45;24.19;118.99
66401;HTU21D;53211;45.040;38.788;2022-07-23T07:06:12;24.27;118.99
66401;HTU21D;53211;45.040;38.788;2022-07-23T07:08:38;24.24;118.99
66401;HTU21D;53211;45.040;38.788;2022-07-23T07:11:03;24.24;118.99
66401;HTU21D;53211;45.040;38.788;2022-07-23T07:13:29;24.01;118.99
66401;HTU21D;53211;45.040;38.788;2022-07-23T07:15:56;23.54;118.99
66401;HTU21D;53211;45.040;38.788;2022-07-23T07:18:22;23.18;118.99
66401;HTU21D;53211;45.040;38.788;2022-07-23T07:20:48;22.84;118.99
66401;HTU21D;53211;45.040;38.788;2022-07-23T07:23:14;22.63;118.99
66401;HTU21D;53211;45.040;38.788;2022-07-23T07:25:40;22.46;118.99
66401;HTU21D;53211;45.040;38.788;2022-07-23T07:28:06;22.37;118.99
66401;HTU21D;53211;45.040;38.788;2022-07-23T07:30:32;22.43;118.99
66401;HTU21D;53211;45.040;38.788;2022-07-23T07:32:58;22.49;118.99
66401;HTU21D;53211;45.040;38.788;2022-07-23T07:35:24;22.64;118.99
66401;HTU21D;53211;45.040;38.788;2022-07-23T07:37:50;22.85;118.99
66401;HTU21D;53211;45.040;38.788;2022-07-23T07:40:16;23.05;118.99
66401;HTU21D;53211;45.040;38.788;2022-07-23T07:42:49;23.08;118.99
66401;HTU21D;53211;45.040;38.788;2022-07-23T07:45:15;23.11;118.99
66401;HTU21D;53211;45.040;38.788;2022-07-23T07:47:41;23.23;118.99
66401;HTU21D;53211;45.040;38.788;2022-07-23T07:50:07;23.26;118.99
66401;HTU21D;53211;45.040;38.788;2022-07-23T07:52:34;23.42;118.99
66401;HTU21D;53211;45.040;38.788;2022-07-23T07:55:05;23.56;118.99
66401;HTU21D;53211;45.040;38.788;2022-07-23T07:57:30;23.62;118.99
66401;HTU21D;53211;45.040;38.788;2022-07-23T07:59:56;23.73;118.99
66401;HTU21D;53211;45.040;38.788;2022-07-23T08:02:22;23.64;118.99
66401;HTU21D;53211;45.040;38.788;2022-07-23T08:04:48;23.71;118.99
66401;HTU21D;53211;45.040;38.788;2022-07-23T08:07:14;23.74;118.99
66401;HTU21D;53211;45.040;38.788;2022-07-23T08:09:40;23.79;118.99
66401;HTU21D;53211;45.040;38.788;2022-07-23T08:12:06;23.72;117.88
66401;HTU21D;53211;45.040;38.788;2022-07-23T08:14:32;23.81;118.99
66401;HTU21D;53211;45.040;38.788;2022-07-23T08:16:58;23.86;118.99
66401;HTU21D;53211;45.040;38.788;2022-07-23T08:19:24;23.95;118.99
66401;HTU21D;53211;45.040;38.788;2022-07-23T08:21:50;24.04;118.99
66401;HTU21D;53211;45.040;38.788;2022-07-23T08:24:16;24.16;118.99
66401;HTU21D;53211;45.040;38.788;2022-07-23T08:26:41;24.32;118.26
66401;HTU21D;53211;45.040;38.788;2022-07-23T08:29:07;24.40;118.99
66401;HTU21D;53211;45.040;38.788;2022-07-23T08:31:33;24.36;118.97
66401;HTU21D;53211;45.040;38.788;2022-07-23T08:33:59;24.24;117.47
66401;HTU21D;53211;45.040;38.788;2022-07-23T08:36:25;24.04;113.68
66401;HTU21D;53211;45.040;38.788;2022-07-23T08:38:53;23.87;107.10
66401;HTU21D;53211;45.040;38.788;2022-07-23T08:41:19;23.96;112.32
66401;HTU21D;53211;45.040;38.788;2022-07-23T08:43:46;24.06;117.25
66401;HTU21D;53211;45.040;38.788;2022-07-23T08:46:12;24.25;111.99
66401;HTU21D;53211;45.040;38.788;2022-07-23T08:48:38;24.36;113.94
66401;HTU21D;53211;45.040;38.788;2022-07-23T08:51:05;24.31;111.39
66401;HTU21D;53211;45.040;38.788;2022-07-23T08:53:32;24.24;112.13
66401;HTU21D;53211;45.040;38.788;2022-07-23T08:55:58;24.30;108.30
66401;HTU21D;53211;45.040;38.788;2022-07-23T08:58:25;24.42;111.61
66401;HTU21D;53211;45.040;38.788;2022-07-23T09:00:51;24.48;111.49
66401;HTU21D;53211;45.040;38.788;2022-07-23T09:03:18;24.59;111.64
66401;HTU21D;53211;45.040;38.788;2022-07-23T09:05:44;24.44;112.16
66401;HTU21D;53211;45.040;38.788;2022-07-23T09:08:11;24.36;109.49
66401;HTU21D;53211;45.040;38.788;2022-07-23T09:15:54;24.53;115.41
66401;HTU21D;53211;45.040;38.788;2022-07-23T09:18:27;24.55;109.30
66401;HTU21D;53211;45.040;38.788;2022-07-23T09:21:05;24.70;109.24
66401;HTU21D;53211;45.040;38.788;2022-07-23T09:23:37;24.98;99.71
66401;HTU21D;53211;45.040;38.788;2022-07-23T09:26:10;25.22;99.57
66401;HTU21D;53211;45.040;38.788;2022-07-23T09:29:02;25.46;100.83
66401;HTU21D;53211;45.040;38.788;2022-07-23T09:31:32;25.06;95.47
66401;HTU21D;53211;45.040;38.788;2022-07-23T09:34:06;25.25;96.83
66401;HTU21D;53211;45.040;38.788;2022-07-23T09:36:32;25.17;95.72
66401;HTU21D;53211;45.040;38.788;2022-07-23T09:38:58;25.14;96.22
66401;HTU21D;53211;45.040;38.788;2022-07-23T09:41:23;25.25;95.97
66401;HTU21D;53211;45.040;38.788;2022-07-23T09:43:54;25.24;97.63
66401;HTU21D;53211;45.040;38.788;2022-07-23T09:46:26;25.22;96.71
66401;HTU21D;53211;45.040;38.788;2022-07-23T09:48:53;25.40;96.27
66401;HTU21D;53211;45.040;38.788;2022-07-23T09:51:19;25.54;95.57
66401;HTU21D;53211;45.040;38.788;2022-07-23T09:53:57;25.56;92.45
66401;HTU21D;53211;45.040;38.788;2022-07-23T09:56:23;25.65;92.16
66401;HTU21D;53211;45.040;38.788;2022-07-23T09:58:49;25.65;91.85
66401;HTU21D;53211;45.040;38.788;2022-07-23T10:01:17;25.72;93.35
66401;HTU21D;53211;45.040;38.788;2022-07-23T10:03:43;25.40;89.39
66401;HTU21D;53211;45.040;38.788;2022-07-23T10:06:35;25.28;91.37
66401;HTU21D;53211;45.040;38.788;2022-07-23T10:09:38;25.34;92.63
66401;HTU21D;53211;45.040;38.788;2022-07-23T10:12:27;25.53;93.81
66401;HTU21D;53211;45.040;38.788;2022-07-23T10:15:26;25.35;89.69
66401;HTU21D;53211;45.040;38.788;2022-07-23T10:17:52;25.44;88.54
66401;HTU21D;53211;45.040;38.788;2022-07-23T10:20:18;25.54;88.39
66401;HTU21D;53211;45.040;38.788;2022-07-23T10:22:48;25.64;88.39
66401;HTU21D;53211;45.040;38.788;2022-07-23T10:25:22;25.88;90.32
66401;HTU21D;53211;45.040;38.788;2022-07-23T10:27:56;25.90;88.57
66401;HTU21D;53211;45.040;38.788;2022-07-23T10:30:35;25.87;88.96
66401;HTU21D;53211;45.040;38.788;2022-07-23T10:38:02;26.73;84.62
66401;HTU21D;53211;45.040;38.788;2022-07-23T10:40:28;27.52;81.78
66401;HTU21D;53211;45.040;38.788;2022-07-23T10:42:58;28.15;82.10
66401;HTU21D;53211;45.040;38.788;2022-07-23T10:45:25;28.26;77.81
66401;HTU21D;53211;45.040;38.788;2022-07-23T10:47:51;28.73;77.02
66401;HTU21D;53211;45.040;38.788;2022-07-23T10:50:24;28.63;79.06
66401;HTU21D;53211;45.040;38.788;2022-07-23T10:55:39;28.21;81.02
66401;HTU21D;53211;45.040;38.788;2022-07-23T10:58:05;27.58;80.62
66401;HTU21D;53211;45.040;38.788;2022-07-23T11:00:32;27.47;82.68
66401;HTU21D;53211;45.040;38.788;2022-07-23T11:02:58;27.44;82.21
66401;HTU21D;53211;45.040;38.788;2022-07-23T11:10:36;26.83;83.32
66401;HTU21D;53211;45.040;38.788;2022-07-23T11:26:52;30.18;69.68
66401;HTU21D;53211;45.040;38.788;2022-07-23T11:32:03;32.19;65.56
66401;HTU21D;53211;45.040;38.788;2022-07-23T11:34:30;32.59;65.04
66401;HTU21D;53211;45.040;38.788;2022-07-23T11:36:57;32.09;61.96
66401;HTU21D;53211;45.040;38.788;2022-07-23T11:39:24;31.75;63.03
66401;HTU21D;53211;45.040;38.788;2022-07-23T11:41:51;31.14;67.00
66401;HTU21D;53211;45.040;38.788;2022-07-23T11:44:26;30.26;69.10
66401;HTU21D;53211;45.040;38.788;2022-07-23T11:46:56;29.83;72.64
66401;HTU21D;53211;45.040;38.788;2022-07-23T11:49:23;30.47;70.83
66401;HTU21D;53211;45.040;38.788;2022-07-23T11:52:05;31.25;68.06
66401;HTU21D;53211;45.040;38.788;2022-07-23T11:54:31;31.53;66.23
66401;HTU21D;53211;45.040;38.788;2022-07-23T11:56:57;31.31;66.53
66401;HTU21D;53211;45.040;38.788;2022-07-23T11:59:24;31.43;66.86
66401;HTU21D;53211;45.040;38.788;2022-07-23T12:02:01;31.30;66.22
66401;HTU21D;53211;45.040;38.788;2022-07-23T12:04:40;32.49;64.92
66401;HTU21D;53211;45.040;38.788;2022-07-23T12:09:50;32.46;62.05
66401;HTU21D;53211;45.040;38.788;2022-07-23T12:12:16;32.44;63.45
66401;HTU21D;53211;45.040;38.788;2022-07-23T12:14:49;32.57;60.70
66401;HTU21D;53211;45.040;38.788;2022-07-23T12:17:15;32.50;59.71
66401;HTU21D;53211;45.040;38.788;2022-07-23T12:19:41;33.02;60.34
66401;HTU21D;53211;45.040;38.788;2022-07-23T12:22:07;33.31;59.59
66401;HTU21D;53211;45.040;38.788;2022-07-23T12:24:54;32.67;57.77
66401;HTU21D;53211;45.040;38.788;2022-07-23T12:27:21;33.50;57.13
66401;HTU21D;53211;45.040;38.788;2022-07-23T12:29:47;32.48;57.72
66401;HTU21D;53211;45.040;38.788;2022-07-23T12:32:20;33.97;56.45
66401;HTU21D;53211;45.040;38.788;2022-07-23T12:34:48;34.81;55.65
66401;HTU21D;53211;45.040;38.788;2022-07-23T12:37:30;35.53;53.92
66401;HTU21D;53211;45.040;38.788;2022-07-23T12:39:56;36.07;53.65
66401;HTU21D;53211;45.040;38.788;2022-07-23T12:42:21;36.77;55.13
66401;HTU21D;53211;45.040;38.788;2022-07-23T12:45:09;36.12;48.25
66401;HTU21D;53211;45.040;38.788;2022-07-23T12:50:34;36.80;47.92
66401;HTU21D;53211;45.040;38.788;2022-07-23T12:53:03;36.52;51.24
66401;HTU21D;53211;45.040;38.788;2022-07-23T12:55:29;36.39;47.20
66401;HTU21D;53211;45.040;38.788;2022-07-23T12:58:08;36.48;48.61
66401;HTU21D;53211;45.040;38.788;2022-07-23T13:00:55;36.27;50.19
66401;HTU21D;53211;45.040;38.788;2022-07-23T13:03:26;36.08;49.44
66401;HTU21D;53211;45.040;38.788;2022-07-23T13:05:52;35.77;47.96
66401;HTU21D;53211;45.040;38.788;2022-07-23T13:08:18;34.48;49.27
66401;HTU21D;53211;45.040;38.788;2022-07-23T13:10:44;34.23;50.61
66401;HTU21D;53211;45.040;38.788;2022-07-23T13:13:13;34.47;49.74
66401;HTU21D;53211;45.040;38.788;2022-07-23T13:15:39;34.98;48.53
66401;HTU21D;53211;45.040;38.788;2022-07-23T13:18:05;35.13;47.99
66401;HTU21D;53211;45.040;38.788;2022-07-23T13:20:31;35.23;47.59
66401;HTU21D;53211;45.040;38.788;2022-07-23T13:22:59;34.86;48.53
66401;HTU21D;53211;45.040;38.788;2022-07-23T13:25:25;34.92;45.54
66401;HTU21D;53211;45.040;38.788;2022-07-23T13:27:51;35.87;49.04
66401;HTU21D;53211;45.040;38.788;2022-07-23T13:30:17;35.65;48.02
66401;HTU21D;53211;45.040;38.788;2022-07-23T13:32:43;36.31;46.12
66401;HTU21D;53211;45.040;38.788;2022-07-23T13:35:09;35.75;44.16
66401;HTU21D;53211;45.040;38.788;2022-07-23T13:37:35;36.19;46.11
66401;HTU21D;53211;45.040;38.788;2022-07-23T13:40:01;34.84;44.38
66401;HTU21D;53211;45.040;38.788;2022-07-23T13:42:26;35.31;42.37
66401;HTU21D;53211;45.040;38.788;2022-07-23T13:44:52;34.97;45.01
66401;HTU21D;53211;45.040;38.788;2022-07-23T13:47:18;35.03;47.00
66401;HTU21D;53211;45.040;38.788;2022-07-23T13:49:44;34.97;47.76
66401;HTU21D;53211;45.040;38.788;2022-07-23T13:52:10;34.83;47.24
66401;HTU21D;53211;45.040;38.788;2022-07-23T13:54:36;35.33;46.23
66401;HTU21D;53211;45.040;38.788;2022-07-23T13:57:02;36.02;45.89
66401;HTU21D;53211;45.040;38.788;2022-07-23T13:59:28;36.25;46.96
66401;HTU21D;53211;45.040;38.788;2022-07-23T14:01:54;35.73;44.86
66401;HTU21D;53211;45.040;38.788;2022-07-23T14:04:20;36.25;43.86
66401;HTU21D;53211;45.040;38.788;2022-07-23T14:06:46;36.16;44.06
66401;HTU21D;53211;45.040;38.788;2022-07-23T14:09:12;36.56;45.60
66401;HTU21D;53211;45.040;38.788;2022-07-23T14:11:38;35.52;44.01
66401;HTU21D;53211;45.040;38.788;2022-07-23T14:14:04;34.49;46.21
66401;HTU21D;53211;45.040;38.788;2022-07-23T14:16:30;34.76;47.05
66401;HTU21D;53211;45.040;38.788;2022-07-23T14:18:56;35.38;46.15
66401;HTU21D;53211;45.040;38.788;2022-07-23T14:21:22;35.84;46.20
66401;HTU21D;53211;45.040;38.788;2022-07-23T14:23:47;35.62;44.64
66401;HTU21D;53211;45.040;38.788;2022-07-23T14:26:13;34.55;45.20
66401;HTU21D;53211;45.040;38.788;2022-07-23T14:28:39;34.48;46.76
66401;HTU21D;53211;45.040;38.788;2022-07-23T14:31:05;34.79;45.67
66401;HTU21D;53211;45.040;38.788;2022-07-23T14:33:31;33.47;48.56
66401;HTU21D;53211;45.040;38.788;2022-07-23T14:35:57;33.05;50.71
66401;HTU21D;53211;45.040;38.788;2022-07-23T14:38:24;32.09;52.81
66401;HTU21D;53211;45.040;38.788;2022-07-23T14:40:50;31.71;54.57
66401;HTU21D;53211;45.040;38.788;2022-07-23T14:43:16;30.60;57.17
66401;HTU21D;53211;45.040;38.788;2022-07-23T14:45:41;29.65;60.68
66401;HTU21D;53211;45.040;38.788;2022-07-23T14:48:07;29.62;61.36
66401;HTU21D;53211;45.040;38.788;2022-07-23T14:50:33;28.67;64.11
66401;HTU21D;53211;45.040;38.788;2022-07-23T14:52:59;28.44;65.28
66401;HTU21D;53211;45.040;38.788;2022-07-23T14:55:25;28.17;66.81
66401;HTU21D;53211;45.040;38.788;2022-07-23T14:57:51;27.64;69.67
66401;HTU21D;53211;45.040;38.788;2022-07-23T15:00:17;27.67;70.37
66401;HTU21D;53211;45.040;38.788;2022-07-23T15:02:43;27.24;70.35
66401;HTU21D;53211;45.040;38.788;2022-07-23T15:05:09;27.13;71.25
66401;HTU21D;53211;45.040;38.788;2022-07-23T15:07:34;27.00;73.19
66401;HTU21D;53211;45.040;38.788;2022-07-23T15:10:00;27.13;71.36
66401;HTU21D;53211;45.040;38.788;2022-07-23T15:12:26;26.67;73.31
66401;HTU21D;53211;45.040;38.788;2022-07-23T15:14:52;26.42;74.51
66401;HTU21D;53211;45.040;38.788;2022-07-23T15:17:18;26.32;74.94
66401;HTU21D;53211;45.040;38.788;2022-07-23T15:19:43;26.16;75.76
66401;HTU21D;53211;45.040;38.788;2022-07-23T15:22:09;25.80;77.23
66401;HTU21D;53211;45.040;38.788;2022-07-23T15:24:35;25.71;77.78
66401;HTU21D;53211;45.040;38.788;2022-07-23T15:27:01;25.57;79.14
66401;HTU21D;53211;45.040;38.788;2022-07-23T15:29:27;25.67;77.48
66401;HTU21D;53211;45.040;38.788;2022-07-23T15:31:53;25.40;80.42
66401;HTU21D;53211;45.040;38.788;2022-07-23T15:34:19;25.35;80.43
66401;HTU21D;53211;45.040;38.788;2022-07-23T15:36:44;25.28;80.32
66401;HTU21D;53211;45.040;38.788;2022-07-23T15:39:10;25.25;80.68